Aviation Digital Data Service (ADDS)

Output produced by METARs form (1554 UTC 23 April 2017)
found at http://www.aviationweather.gov/adds/metars/
 
KHBG 231120Z 2312/2412 32008KT P6SM SCT012 BKN040 
     FM231400 32010KT P6SM BKN015 
     FM231800 32012G24KT P6SM BKN025 
     FM240200 32007KT P6SM FEW050 FEW250
       
KHIE 231124Z 2312/2412 32003KT P6SM OVC022 
     FM231400 VRB03KT P6SM SCT250
       
TAF KHIF 231300Z 2313/2419 12009KT 9999 FEW120 QNH2984INS 
     BECMG 2321/2322 31009KT 9999 BKN090 QNH2983INS 
     BECMG 2403/2404 12006KT 9999 SKC QNH2979INS 
     BECMG 2412/2413 18006KT 9000 -SHRA QNH2977INS TX15/2321Z TN03/2411Z
       
KHIO 231129Z 2312/2412 VRB03KT P6SM VCSH BKN060 
     FM231400 16004KT P6SM -SHRA OVC050 
     FM231800 20008KT P6SM -SHRA SCT025 OVC050 
     FM240500 17007KT P6SM -RA SCT025 OVC035
       
KHKS 231120Z 2312/2412 31008KT P6SM BKN015 
     FM231800 32010G22KT P6SM BKN025 
     FM240100 33007KT P6SM BKN050
       
KHKY 231503Z 2315/2412 05010G18KT 5SM -SHRA BR OVC008 
     TEMPO 2315/2318 2SM SHRA BR BKN008 
     FM231800 05010G17KT 6SM -SHRA BR OVC007 
     FM240000 05012G20KT 2SM SHRA BR OVC004
       
KHLG 231120Z 2312/2412 06008KT P6SM SKC
       
KHLN 231146Z 2312/2412 VRB03KT P6SM SCT060 BKN090 
     TEMPO 2314/2317 -SHRA BKN040 
     FM231700 31008KT P6SM -SHRA SCT025 BKN040 
     FM232100 27007KT P6SM SCT040 BKN060
       
KHND 231126Z 2312/2412 18008KT P6SM BKN250 
     FM231600 20015G25KT P6SM SCT250 
     FM231900 22024G34KT P6SM SCT250 
     FM240200 23015G25KT P6SM SCT250 
     FM240400 23014KT P6SM SCT250
       
KHOB 231120Z 2312/2412 09005KT P6SM SKC 
     FM231500 15010KT P6SM SKC
       
KHON 231122Z 2312/2412 17006KT P6SM FEW250 
     FM231700 19011KT P6SM SCT250 
     FM231800 19016G24KT P6SM SCT250 
     FM240000 16013G19KT P6SM SCT250 
     FM240300 16014G21KT P6SM BKN250 WS010/19040KT 
     FM240900 16014G21KT P6SM BKN200
       
TAF AMD KHOP 231440Z 2314/2414 03009KT 9000 -SHRA OVC011 QNH2988INS 
     TEMPO 2314/2317 8000 -TSRA OVC011CB 
     BECMG 2316/2317 03009KT 6000 -SHRA BR OVC007 QNH2987INS 
     BECMG 2401/2402 02009KT 9999 NSW SCT010 OVC035 QNH2985INS TX11/2405Z TN08/2315Z
       
KHOT 231516Z 2315/2412 34008G15KT P6SM SKC 
     FM240000 VRB04KT P6SM SKC
       
KHOU 231507Z 2315/2412 34015KT P6SM FEW020 FEW100 
     FM240100 35008KT P6SM SKC 
     FM240300 VRB03KT P6SM SKC
       
KHPN 231431Z 2315/2412 34008KT P6SM SKC 
     FM231800 17006KT P6SM FEW250 
     FM240200 VRB03KT P6SM BKN200 AMD NOT SKED
       
KHQM 231137Z 2312/2412 08005KT P6SM VCSH BKN015 OVC030 
     FM231500 09008KT 4SM -RA BR SCT010 OVC015 
     FM232300 21010KT 6SM -SHRA BR BKN015 OVC025 
     FM241000 08005KT 6SM BR VCSH SCT015 BKN030 OVC060
       
KHRL 231422Z 2314/2412 36015KT P6SM BKN045 
     FM231800 33015KT P6SM SCT050 
     FM232100 01010KT P6SM FEW250
       
KHRO 231516Z 2315/2412 02008G15KT P6SM SKC 
     FM240000 VRB06KT P6SM SKC
       
TAF AMD KHST 231409Z 2314/2414 17010G15KT 9000 -SHRA VCTS SCT015CB OVC040 QNH2970INS 
     TEMPO 2314/2400 8000 -TSRA BKN015CB 
     BECMG 2403/2404 27012KT 9999 NSW FEW020 SCT030 QNH2965INS TX27/2318Z TN23/2408Z
       
KHSV 231129Z 2312/2412 33007KT 5SM BR VCSH OVC007 
     FM231500 34009KT P6SM VCSH OVC007 
     FM231900 34010KT P6SM -RA SCT004 OVC009 
     FM232100 33010KT P6SM VCSH OVC015 
     FM240500 35005KT P6SM BKN009
       
KHTS 231521Z 2315/2412 05006KT P6SM BKN040 
     FM240000 07006KT P6SM BKN030 
     FM240800 06004KT P6SM -RA OVC025
       
KHUF 231120Z 2312/2412 03007KT P6SM SKC 
     FM231700 04011G19KT P6SM SKC 
     FM232300 03005KT P6SM SKC
       
KHUM 231427Z 2314/2412 32009KT P6SM OVC010 
     FM231700 33011KT P6SM SCT025 
     FM240000 33011KT P6SM SCT130 
     FM240400 33007KT P6SM FEW250
       
KHUT 231140Z 2312/2412 30004KT P6SM SKC 
     FM231700 19007KT P6SM SKC 
     FM232000 18013KT P6SM SKC 
     FM240800 18017KT P6SM BKN300 WS015/19043KT
       
KHVR 231146Z 2312/2412 09018G23KT P6SM BKN009 
     FM231600 08015G21KT P6SM SCT015 BKN030 
     FM232200 10010KT P6SM VCSH SCT025 BKN040 
     TEMPO 2323/2403 -SHRA BKN020 
     FM240500 08006KT P6SM SCT030 BKN050
       
KHYA 231120Z 2312/2412 35010KT P6SM SCT015 
     FM231900 13004KT P6SM FEW250 
     FM232200 19007KT P6SM FEW250
       
KHYR 231138Z 2312/2412 02011G19KT P6SM OVC013 
     FM231600 05008KT P6SM OVC025 
     FM231800 06008KT P6SM BKN035 
     FM240200 08008KT P6SM VCSH BKN025
       
KHYS 231120Z 2312/2412 24004KT P6SM SKC 
     FM231400 22008KT P6SM SKC 
     FM231600 20012KT P6SM SKC 
     FM231900 19017G25KT P6SM SKC 
     FM240500 17015G23KT P6SM FEW250 WS013/18030KT 
     FM240600 17015KT P6SM FEW250 WS020/18045KT
       
KHUL 231542Z 2316/2412 33006KT P6SM SCT015 OVC025 
     FM231800 27004KT P6SM BKN040 
     FM232100 22010KT P6SM SCT040 BKN250 
     FM240800 31010KT P6SM BKN025